Terminal Aerodrome Forecast
Issued by NWS Wichita, KS

Home | Current Version | Previous Version | Text Only | Print | Product List | Glossary On
Versions: 1 2 3 4 5 6 7 8 9 10 11 12 13 14 15 16 17 18 19 20 21 22 23 24 25 26 27 28 29 30 31
000
FTUS43 KICT 020536
TAFICT
TAF
KICT 020536Z 0206/0306 VRB03KT 5SM BR SCT250
     FM020900 VRB03KT 3SM BR SCT010 BKN250
      TEMPO 0210/0214 BKN010
     FM021400 11006KT 5SM BR BKN014
     FM021600 14010KT P6SM SCT020 OVC250
     FM022100 16013KT P6SM OVC025
     FM030000 17015G22KT 4SM BR OVC020=

USA.gov is the U.S. government's official web portal to all federal, state and local government web resources and services.